createdAt,value
2018-03-28T00:01:38.565Z,7.30
2018-03-28T00:04:07.473Z,8.52
2018-03-28T00:06:35.652Z,8.07
2018-03-28T00:09:03.816Z,8.43
2018-03-28T00:11:31.946Z,8.15
2018-03-28T00:14:00.070Z,9.35
2018-03-28T00:16:28.212Z,11.45
2018-03-28T00:18:57.093Z,8.07
2018-03-28T00:21:26.016Z,8.98
2018-03-28T00:23:54.147Z,8.50
2018-03-28T00:26:22.263Z,8.35
2018-03-28T00:28:50.428Z,9.52
2018-03-28T00:31:18.569Z,8.73
2018-03-28T00:33:47.506Z,7.47
2018-03-28T00:36:15.671Z,7.97
2018-03-28T00:38:43.803Z,7.95
2018-03-28T00:41:12.697Z,9.57
2018-03-28T00:43:41.620Z,10.48
2018-03-28T00:46:09.748Z,8.60
2018-03-28T00:48:37.871Z,7.90
2018-03-28T00:51:23.856Z,10.25
2018-03-28T00:53:51.987Z,8.88
2018-03-28T00:56:20.169Z,9.63
2018-03-28T00:58:48.282Z,8.43
2018-03-28T01:01:16.415Z,10.25
2018-03-28T01:03:45.306Z,9.02
2018-03-28T01:06:14.212Z,8.35
2018-03-28T01:08:42.342Z,8.43
2018-03-28T01:11:10.482Z,8.60
2018-03-28T01:13:38.649Z,7.75
2018-03-28T01:16:06.792Z,8.80
2018-03-28T01:18:35.803Z,9.00
2018-03-28T01:21:03.962Z,9.00
2018-03-28T01:23:32.110Z,8.98
2018-03-28T01:26:01.001Z,10.05
2018-03-28T01:28:29.937Z,9.98
2018-03-28T01:30:58.324Z,9.50
2018-03-28T01:33:26.452Z,9.20
2018-03-28T01:35:55.373Z,9.30
2018-03-28T01:38:23.510Z,9.20
2018-03-28T01:40:53.047Z,9.30
2018-03-28T01:43:21.216Z,10.20
2018-03-28T01:45:49.355Z,10.32
2018-03-28T01:48:18.251Z,9.63
2018-03-28T01:50:47.166Z,9.23
2018-03-28T01:53:15.290Z,9.18
2018-03-28T01:55:43.535Z,10.00
2018-03-28T01:58:11.691Z,10.18
2018-03-28T02:00:39.817Z,11.50
2018-03-28T02:03:07.956Z,9.75
2018-03-28T02:05:36.111Z,10.32
2018-03-28T02:08:04.237Z,10.70
2018-03-28T02:10:32.357Z,9.80
2018-03-28T02:13:00.511Z,10.18
2018-03-28T02:15:28.643Z,11.65
2018-03-28T02:17:56.775Z,10.82
2018-03-28T02:20:24.933Z,10.77
2018-03-28T02:22:53.072Z,10.73
2018-03-28T02:25:21.211Z,10.50
2018-03-28T02:27:49.356Z,10.85
2018-03-28T02:30:17.491Z,11.10
2018-03-28T02:32:46.403Z,11.15
2018-03-28T02:35:14.551Z,10.02
2018-03-28T02:37:42.691Z,12.60
2018-03-28T02:40:10.852Z,12.15
2018-03-28T02:42:39.028Z,11.95
2018-03-28T02:45:07.171Z,11.70
2018-03-28T02:47:35.309Z,12.45
2018-03-28T02:50:03.487Z,12.63
2018-03-28T02:52:32.424Z,12.13
2018-03-28T02:55:00.584Z,12.00
2018-03-28T02:57:28.726Z,13.35
2018-03-28T02:59:57.756Z,11.98
2018-03-28T03:02:25.904Z,13.27
2018-03-28T03:04:54.064Z,13.30
2018-03-28T03:07:23.006Z,12.20
2018-03-28T03:09:51.164Z,12.60
2018-03-28T03:12:19.375Z,14.75
2018-03-28T03:14:47.531Z,13.68
2018-03-28T03:17:15.655Z,15.20
2018-03-28T03:19:44.547Z,15.00
2018-03-28T03:22:12.691Z,15.98
2018-03-28T03:24:40.815Z,15.00
2018-03-28T03:27:08.961Z,16.05
2018-03-28T03:29:37.881Z,14.80
2018-03-28T03:32:06.078Z,16.48
2018-03-28T03:34:34.215Z,14.40
2018-03-28T03:37:02.451Z,14.10
2018-03-28T03:39:30.550Z,15.27
2018-03-28T03:41:58.695Z,13.80
2018-03-28T03:44:26.865Z,15.88
2018-03-28T03:46:55.007Z,15.38
2018-03-28T03:49:23.155Z,15.90
2018-03-28T03:51:51.325Z,16.80
2018-03-28T03:54:19.455Z,15.40
2018-03-28T03:56:47.682Z,15.73
2018-03-28T03:59:15.843Z,16.75
2018-03-28T04:01:43.990Z,17.42
2018-03-28T04:04:12.915Z,16.73
2018-03-28T04:06:41.043Z,16.98
2018-03-28T04:09:09.251Z,18.55
2018-03-28T04:11:37.403Z,17.20
2018-03-28T04:14:06.333Z,16.65
2018-03-28T04:16:34.472Z,18.70
2018-03-28T04:19:02.644Z,16.30
2018-03-28T04:21:31.552Z,17.15
2018-03-28T04:23:59.690Z,17.87
2018-03-28T04:26:28.591Z,17.95
2018-03-28T04:28:57.492Z,19.00
2018-03-28T04:31:25.633Z,18.95
2018-03-28T04:33:53.757Z,18.17
2018-03-28T04:36:21.915Z,18.80
2018-03-28T04:38:50.068Z,20.33
2018-03-28T04:41:19.443Z,18.42
2018-03-28T04:43:47.637Z,20.25
2018-03-28T04:46:16.544Z,20.98
2018-03-28T04:48:45.195Z,19.00
2018-03-28T04:51:13.362Z,19.25
2018-03-28T04:53:41.483Z,19.45
2018-03-28T04:56:10.404Z,18.15
2018-03-28T04:58:38.688Z,19.58
2018-03-28T05:01:06.822Z,20.20
2018-03-28T05:03:34.949Z,18.30
2018-03-28T05:06:03.099Z,20.12
2018-03-28T05:08:31.234Z,20.50
2018-03-28T05:10:59.368Z,19.10
2018-03-28T05:13:27.524Z,19.27
2018-03-28T05:15:55.677Z,19.37
2018-03-28T05:18:23.797Z,20.70
2018-03-28T05:20:52.728Z,21.45
2018-03-28T05:23:20.903Z,17.92
2018-03-28T05:25:49.039Z,19.90
2018-03-28T05:28:18.056Z,19.83
2018-03-28T05:33:49.195Z,20.37
2018-03-28T05:36:17.468Z,20.77
2018-03-28T05:38:46.358Z,20.83
2018-03-28T05:41:15.688Z,20.37
2018-03-28T05:43:44.017Z,21.87
2018-03-28T05:46:12.156Z,22.13
2018-03-28T05:48:40.307Z,22.77
2018-03-28T05:51:08.452Z,21.67
2018-03-28T05:53:37.399Z,21.20
2018-03-28T05:56:05.551Z,24.15
2018-03-28T05:58:33.724Z,23.48
2018-03-28T06:01:02.648Z,22.48
2018-03-28T06:03:30.803Z,23.98
2018-03-28T06:05:58.943Z,23.95
2018-03-28T06:08:27.136Z,23.27
2018-03-28T06:10:55.274Z,25.15
2018-03-28T06:13:24.195Z,23.12
2018-03-28T06:15:52.327Z,23.73
2018-03-28T06:18:21.239Z,24.08
2018-03-28T06:20:49.592Z,24.05
2018-03-28T06:23:18.554Z,27.08
2018-03-28T06:25:46.756Z,25.62
2018-03-28T06:28:15.685Z,26.95
2018-03-28T06:30:43.853Z,24.85
2018-03-28T06:33:11.983Z,29.33
2018-03-28T06:35:40.200Z,29.73
2018-03-28T06:38:08.356Z,27.00
2018-03-28T06:40:36.524Z,27.05
2018-03-28T06:43:04.676Z,27.30
2018-03-28T06:45:33.586Z,24.75
2018-03-28T06:48:01.741Z,29.12
2018-03-28T06:50:30.634Z,30.10
2018-03-28T06:52:58.788Z,29.00
2018-03-28T06:55:26.913Z,26.67
2018-03-28T06:57:55.052Z,28.20
2018-03-28T07:00:23.961Z,27.80
2018-03-28T07:02:52.543Z,27.48
2018-03-28T07:05:20.741Z,29.25
2018-03-28T07:07:48.882Z,26.73
2018-03-28T07:10:17.064Z,30.05
2018-03-28T07:12:45.202Z,33.72
2018-03-28T07:15:13.337Z,33.10
2018-03-28T07:17:41.479Z,36.80
2018-03-28T07:20:09.608Z,30.88
2018-03-28T07:22:38.538Z,27.87
2018-03-28T07:25:06.692Z,29.15
2018-03-28T07:27:35.632Z,27.30
2018-03-28T07:30:13.981Z,30.70
2018-03-28T07:32:42.301Z,27.95
2018-03-28T07:35:10.430Z,31.42
2018-03-28T07:37:38.545Z,30.08
2018-03-28T07:40:06.692Z,29.52
2018-03-28T07:42:35.582Z,29.25
2018-03-28T07:45:04.495Z,30.58
2018-03-28T07:47:32.630Z,27.98
2018-03-28T07:50:01.558Z,31.30
2018-03-28T07:52:29.693Z,29.98
2018-03-28T07:54:58.628Z,33.05
2018-03-28T07:57:26.772Z,33.60
2018-03-28T07:59:55.662Z,31.58
2018-03-28T08:02:24.616Z,31.62
2018-03-28T08:04:52.962Z,30.42
2018-03-28T08:07:21.102Z,32.50
2018-03-28T08:09:49.217Z,30.08
2018-03-28T08:12:18.301Z,31.12
2018-03-28T08:14:46.470Z,32.78
2018-03-28T08:17:14.591Z,33.38
2018-03-28T08:19:42.752Z,33.22
2018-03-28T08:22:11.026Z,32.10
2018-03-28T08:24:39.171Z,34.13
2018-03-28T08:27:07.323Z,33.30
2018-03-28T08:29:35.481Z,32.45
2018-03-28T08:32:04.389Z,35.20
2018-03-28T08:34:32.543Z,33.38
2018-03-28T08:37:01.444Z,32.72
2018-03-28T08:39:29.618Z,37.08
2018-03-28T08:41:57.791Z,35.63
2018-03-28T08:44:25.932Z,35.00
2018-03-28T08:46:54.099Z,36.58
2018-03-28T08:49:22.254Z,35.53
2018-03-28T08:51:50.400Z,37.17
2018-03-28T08:54:18.596Z,42.72
2018-03-28T08:56:46.727Z,40.15
2018-03-28T08:59:14.972Z,39.13
2018-03-28T09:01:43.152Z,38.63
2018-03-28T09:04:12.072Z,37.97
2018-03-28T09:06:40.202Z,39.38
2018-03-28T09:09:08.374Z,36.08
2018-03-28T09:11:36.586Z,34.33
2018-03-28T09:14:05.460Z,35.65
2018-03-28T09:16:34.352Z,35.90
2018-03-28T09:19:02.511Z,34.88
2018-03-28T09:21:31.401Z,37.55
2018-03-28T09:24:00.315Z,35.47
2018-03-28T09:26:28.508Z,35.40
2018-03-28T09:28:56.682Z,34.67
2018-03-28T09:31:24.805Z,34.53
2018-03-28T09:33:53.756Z,35.72
2018-03-28T09:36:21.912Z,31.80
2018-03-28T09:38:50.040Z,35.63
2018-03-28T09:41:18.979Z,34.05
2018-03-28T09:43:47.123Z,38.45
2018-03-28T09:46:15.261Z,37.63
2018-03-28T09:48:43.433Z,36.65
2018-03-28T09:51:11.547Z,36.00
2018-03-28T09:53:39.783Z,32.90
2018-03-28T09:56:07.954Z,36.10
2018-03-28T09:58:36.173Z,36.30
2018-03-28T10:01:08.246Z,32.38
2018-03-28T10:03:42.007Z,33.78
2018-03-28T10:06:10.138Z,34.72
2018-03-28T10:08:38.326Z,37.03
2018-03-28T10:11:06.843Z,34.80
2018-03-28T10:13:35.785Z,32.42
2018-03-28T10:16:03.978Z,36.47
2018-03-28T10:18:32.212Z,33.40
2018-03-28T10:21:00.379Z,37.17
2018-03-28T10:23:28.667Z,34.20
2018-03-28T10:25:56.810Z,35.58
2018-03-28T10:28:25.731Z,31.67
2018-03-28T10:30:55.242Z,33.03
2018-03-28T10:33:23.375Z,32.67
2018-03-28T10:35:52.336Z,32.00
2018-03-28T10:38:20.487Z,30.08
2018-03-28T10:40:48.694Z,31.17
2018-03-28T10:43:16.835Z,31.00
2018-03-28T10:45:44.967Z,29.08
2018-03-28T10:48:13.127Z,30.45
2018-03-28T10:50:42.024Z,32.08
2018-03-28T10:53:10.156Z,28.45
2018-03-28T10:55:38.310Z,30.12
2018-03-28T10:58:06.456Z,30.50
2018-03-28T11:00:34.620Z,29.83
2018-03-28T11:03:02.749Z,29.27
2018-03-28T11:05:30.891Z,29.98
2018-03-28T11:07:59.012Z,30.92
2018-03-28T11:10:27.924Z,30.95
2018-03-28T11:12:56.115Z,30.67
2018-03-28T11:15:24.356Z,33.38
2018-03-28T11:17:52.510Z,33.00
2018-03-28T11:20:20.656Z,34.17
2018-03-28T11:22:48.803Z,33.13
2018-03-28T11:25:16.919Z,32.53
2018-03-28T11:27:45.040Z,34.55
2018-03-28T11:30:13.189Z,32.55
2018-03-28T11:32:42.192Z,32.95
2018-03-28T11:35:10.320Z,34.03
2018-03-28T11:37:38.452Z,34.22
2018-03-28T11:40:06.603Z,32.97
2018-03-28T11:42:35.502Z,33.90
2018-03-28T11:45:03.620Z,32.47
2018-03-28T11:47:31.767Z,34.13
2018-03-28T11:49:59.891Z,34.47
2018-03-28T11:52:28.807Z,32.22
2018-03-28T11:54:57.319Z,32.13
2018-03-28T11:57:25.482Z,35.15
2018-03-28T11:59:53.598Z,33.30
2018-03-28T12:02:21.732Z,31.85
2018-03-28T12:04:49.909Z,29.85
2018-03-28T12:07:18.051Z,31.27
2018-03-28T12:09:46.187Z,29.83
2018-03-28T12:12:14.339Z,26.62
2018-03-28T12:14:42.465Z,27.75
2018-03-28T12:17:10.638Z,25.23
2018-03-28T12:19:38.775Z,25.67
2018-03-28T12:22:06.902Z,24.98
2018-03-28T12:24:35.080Z,26.23
2018-03-28T12:27:03.224Z,25.65
2018-03-28T12:29:31.350Z,24.20
2018-03-28T12:31:59.492Z,27.05
2018-03-28T12:34:27.652Z,24.87
2018-03-28T12:36:55.797Z,25.08
2018-03-28T12:39:24.725Z,24.83
2018-03-28T12:41:52.901Z,22.83
2018-03-28T12:44:21.028Z,24.37
2018-03-28T12:46:49.147Z,22.17
2018-03-28T12:49:17.353Z,24.05
2018-03-28T12:51:45.506Z,22.98
2018-03-28T12:54:13.635Z,24.05
2018-03-28T12:56:41.796Z,23.90
2018-03-28T12:59:10.687Z,22.27
2018-03-28T13:01:39.584Z,23.33
2018-03-28T13:04:08.575Z,22.95
2018-03-28T13:06:37.545Z,23.38
2018-03-28T13:09:05.710Z,24.55
2018-03-28T13:11:33.869Z,23.17
2018-03-28T13:14:03.716Z,22.10
2018-03-28T13:16:32.637Z,22.02
2018-03-28T13:19:00.787Z,24.30
2018-03-28T13:21:29.712Z,22.55
2018-03-28T13:23:57.831Z,22.75
2018-03-28T13:26:25.957Z,23.23
2018-03-28T13:28:54.107Z,24.65
2018-03-28T13:31:22.243Z,22.20
2018-03-28T13:33:50.423Z,23.35
2018-03-28T13:36:18.562Z,23.60
2018-03-28T13:38:46.725Z,24.42
2018-03-28T13:41:14.840Z,22.62
2018-03-28T13:43:42.959Z,23.02
2018-03-28T13:46:11.117Z,22.20
2018-03-28T13:48:39.287Z,21.80
2018-03-28T13:51:07.407Z,24.48
2018-03-28T13:53:35.555Z,23.92
2018-03-28T13:56:03.708Z,20.98
2018-03-28T13:58:31.832Z,22.62
2018-03-28T14:01:00.328Z,21.90
2018-03-28T14:03:29.234Z,21.27
2018-03-28T14:05:57.379Z,20.33
2018-03-28T14:08:26.282Z,21.20
2018-03-28T14:10:55.208Z,21.58
2018-03-28T14:13:23.364Z,21.85
2018-03-28T14:15:51.495Z,21.42
2018-03-28T14:18:19.636Z,21.35
2018-03-28T14:20:47.771Z,22.33
2018-03-28T14:23:16.674Z,24.60
2018-03-28T14:25:44.812Z,22.85
2018-03-28T14:28:12.946Z,21.12
2018-03-28T14:30:41.109Z,22.73
2018-03-28T14:33:09.244Z,22.98
2018-03-28T14:35:38.184Z,22.58
2018-03-28T14:38:06.304Z,22.45
2018-03-28T14:40:35.540Z,22.95
2018-03-28T14:43:03.692Z,21.52
2018-03-28T14:45:31.936Z,22.20
2018-03-28T14:48:00.075Z,21.40
2018-03-28T14:50:28.224Z,23.20
2018-03-28T14:52:56.437Z,22.33
2018-03-28T14:55:24.580Z,24.23
2018-03-28T14:57:52.708Z,21.85
2018-03-28T15:00:21.641Z,22.90
2018-03-28T15:02:49.753Z,21.33
2018-03-28T15:05:17.883Z,22.55
2018-03-28T15:07:46.027Z,22.70
2018-03-28T15:10:14.917Z,24.27
2018-03-28T15:12:43.997Z,21.58
2018-03-28T15:15:12.991Z,20.77
2018-03-28T15:17:42.120Z,21.87
2018-03-28T15:20:10.274Z,24.02
2018-03-28T15:22:38.400Z,24.85
2018-03-28T15:25:06.607Z,20.75
2018-03-28T15:27:35.498Z,23.90
2018-03-28T15:30:04.434Z,24.40
2018-03-28T15:32:32.584Z,22.67
2018-03-28T15:35:00.707Z,21.00
2018-03-28T15:37:28.868Z,20.37
2018-03-28T15:39:56.999Z,24.35
2018-03-28T15:42:25.127Z,21.65
2018-03-28T15:44:53.276Z,21.85
2018-03-28T15:47:21.402Z,21.40
2018-03-28T15:49:50.648Z,20.37
2018-03-28T15:52:18.792Z,22.17
2018-03-28T15:54:46.917Z,23.92
2018-03-28T15:57:15.057Z,22.65
2018-03-28T15:59:43.181Z,23.60
2018-03-28T16:02:12.087Z,25.33
2018-03-28T16:04:40.263Z,23.23
2018-03-28T16:07:08.403Z,22.62
2018-03-28T16:09:36.623Z,23.25
2018-03-28T16:12:04.750Z,24.10
2018-03-28T16:14:32.891Z,23.33
2018-03-28T16:17:01.031Z,21.77
2018-03-28T16:19:29.159Z,24.37
2018-03-28T16:21:57.327Z,24.20
2018-03-28T16:24:25.461Z,24.12
2018-03-28T16:26:53.611Z,22.98
2018-03-28T16:29:21.747Z,22.23
2018-03-28T16:31:49.866Z,24.35
2018-03-28T16:34:18.007Z,24.33
2018-03-28T16:36:46.919Z,24.65
2018-03-28T16:39:15.079Z,24.87
2018-03-28T16:41:45.136Z,22.55
2018-03-28T16:44:13.275Z,25.02
2018-03-28T16:46:41.391Z,25.35
2018-03-28T16:49:09.529Z,22.98
2018-03-28T16:51:37.682Z,25.00
2018-03-28T16:54:06.588Z,24.02
2018-03-28T16:56:34.796Z,25.02
2018-03-28T16:59:02.931Z,27.42
2018-03-28T17:01:31.071Z,26.23
2018-03-28T17:03:59.201Z,26.17
2018-03-28T17:06:27.343Z,25.95
2018-03-28T17:08:55.459Z,26.27
2018-03-28T17:11:23.600Z,24.27
2018-03-28T17:13:51.762Z,23.48
2018-03-28T17:16:19.875Z,24.02
2018-03-28T17:18:48.756Z,26.00
2018-03-28T17:21:16.908Z,26.20
2018-03-28T17:23:45.310Z,26.42
2018-03-28T17:26:24.953Z,25.30
2018-03-28T17:28:53.099Z,26.00
2018-03-28T17:31:21.404Z,30.20
2018-03-28T17:33:49.553Z,25.80
2018-03-28T17:36:17.725Z,28.73
2018-03-28T17:38:46.607Z,28.02
2018-03-28T17:41:14.760Z,25.50
2018-03-28T17:43:43.883Z,27.20
2018-03-28T17:46:12.008Z,30.75
2018-03-28T17:48:43.304Z,28.75
2018-03-28T17:51:11.927Z,27.67
2018-03-28T17:53:40.159Z,26.20
2018-03-28T17:56:08.351Z,27.92
2018-03-28T17:58:36.492Z,27.08
2018-03-28T18:01:04.624Z,28.25
2018-03-28T18:03:33.061Z,28.15
2018-03-28T18:06:01.247Z,27.75
2018-03-28T18:08:29.386Z,26.62
2018-03-28T18:10:58.663Z,28.87
2018-03-28T18:13:27.577Z,28.55
2018-03-28T18:15:55.705Z,28.20
2018-03-28T18:18:23.854Z,28.75
2018-03-28T18:20:52.511Z,28.50
2018-03-28T18:23:21.608Z,27.48
2018-03-28T18:25:49.732Z,29.10
2018-03-28T18:28:17.950Z,28.90
2018-03-28T18:30:46.097Z,26.70
2018-03-28T18:33:17.804Z,28.55
2018-03-28T18:35:45.948Z,28.62
2018-03-28T18:38:14.096Z,30.08
2018-03-28T18:40:43.012Z,31.12
2018-03-28T18:43:11.156Z,28.77
2018-03-28T18:45:40.287Z,31.17
2018-03-28T18:48:08.429Z,29.30
2018-03-28T18:50:37.356Z,31.77
2018-03-28T18:53:06.249Z,30.98
2018-03-28T18:55:34.428Z,29.42
2018-03-28T18:58:02.562Z,30.02
2018-03-28T19:00:31.518Z,30.10
2018-03-28T19:02:59.657Z,32.17
2018-03-28T19:05:27.936Z,31.37
2018-03-28T19:07:56.101Z,30.67
2018-03-28T19:10:24.241Z,30.67
2018-03-28T19:12:53.168Z,31.45
2018-03-28T19:15:21.311Z,35.03
2018-03-28T19:17:49.485Z,30.80
2018-03-28T19:20:17.627Z,31.23
2018-03-28T19:22:45.772Z,33.25
2018-03-28T19:25:13.947Z,33.88
2018-03-28T19:27:42.090Z,32.53
2018-03-28T19:30:10.286Z,33.28
2018-03-28T19:32:38.443Z,33.10
2018-03-28T19:35:06.606Z,33.95
2018-03-28T19:37:34.776Z,32.22
2018-03-28T19:40:02.922Z,36.28
2018-03-28T19:42:31.832Z,31.48
2018-03-28T19:44:59.993Z,34.85
2018-03-28T19:47:28.207Z,36.90
2018-03-28T19:49:56.310Z,35.45
2018-03-28T19:52:24.542Z,36.08
2018-03-28T19:54:52.686Z,42.80
2018-03-28T19:57:21.650Z,36.17
2018-03-28T19:59:49.796Z,36.53
2018-03-28T20:02:18.214Z,36.80
2018-03-28T20:04:47.160Z,43.03
2018-03-28T20:07:15.326Z,39.22
2018-03-28T20:09:43.465Z,40.05
2018-03-28T20:12:12.361Z,37.70
2018-03-28T20:14:40.604Z,38.50
2018-03-28T20:17:08.748Z,39.22
2018-03-28T20:19:36.924Z,34.70
2018-03-28T20:22:05.083Z,36.95
2018-03-28T20:24:33.238Z,35.42
2018-03-28T20:27:01.402Z,39.63
2018-03-28T20:29:29.561Z,37.55
2018-03-28T20:31:58.722Z,36.40
2018-03-28T20:34:26.886Z,36.85
2018-03-28T20:36:55.094Z,37.28
2018-03-28T20:39:23.987Z,36.75
2018-03-28T20:42:02.841Z,39.45
2018-03-28T20:44:30.986Z,38.20
2018-03-28T20:46:59.897Z,37.13
2018-03-28T20:49:28.050Z,38.45
2018-03-28T20:51:58.717Z,37.60
2018-03-28T20:54:26.889Z,37.75
2018-03-28T20:56:55.022Z,36.05
2018-03-28T20:59:23.947Z,37.05
2018-03-28T21:01:52.092Z,35.65
2018-03-28T21:04:21.057Z,36.58
2018-03-28T21:06:49.189Z,37.60
2018-03-28T21:09:17.332Z,37.80
2018-03-28T21:11:46.220Z,35.28
2018-03-28T21:14:15.141Z,35.42
2018-03-28T21:16:43.271Z,38.75
2018-03-28T21:19:12.236Z,35.30
2018-03-28T21:21:40.474Z,34.03
2018-03-28T21:24:08.616Z,36.08
2018-03-28T21:26:37.896Z,35.33
2018-03-28T21:29:06.076Z,37.28
2018-03-28T21:31:35.030Z,34.55
2018-03-28T21:34:03.195Z,33.67
2018-03-28T21:36:31.586Z,34.78
2018-03-28T21:39:00.460Z,33.42
2018-03-28T21:41:28.582Z,33.70
2018-03-28T21:43:57.964Z,34.67
2018-03-28T21:46:26.104Z,32.75
2018-03-28T21:48:55.163Z,29.12
2018-03-28T21:51:24.052Z,30.37
2018-03-28T21:53:53.879Z,32.22
2018-03-28T21:56:22.007Z,31.08
2018-03-28T21:58:50.150Z,32.95
2018-03-28T22:01:18.291Z,29.95
2018-03-28T22:03:46.431Z,30.30
2018-03-28T22:06:15.258Z,28.52
2018-03-28T22:08:43.400Z,26.62
2018-03-28T22:11:12.312Z,28.52
2018-03-28T22:13:40.477Z,28.70
2018-03-28T22:16:09.420Z,27.50
2018-03-28T22:18:38.388Z,27.83
2018-03-28T22:21:06.510Z,29.37
2018-03-28T22:23:34.829Z,27.98
2018-03-28T22:26:03.099Z,26.20
2018-03-28T22:28:31.286Z,26.73
2018-03-28T22:30:59.427Z,24.92
2018-03-28T22:33:28.341Z,24.65
2018-03-28T22:35:56.468Z,25.62
2018-03-28T22:38:25.608Z,26.83
2018-03-28T22:40:53.749Z,25.45
2018-03-28T22:43:22.653Z,24.85
2018-03-28T22:45:51.678Z,25.10
2018-03-28T22:48:19.841Z,26.35
2018-03-28T22:50:47.959Z,25.60
2018-03-28T22:53:16.172Z,25.40
2018-03-28T22:55:44.351Z,25.80
2018-03-28T22:58:12.475Z,25.52
2018-03-28T23:00:40.601Z,24.35
2018-03-28T23:03:09.488Z,24.85
2018-03-28T23:05:37.610Z,25.67
2018-03-28T23:08:05.826Z,23.33
2018-03-28T23:10:33.955Z,25.65
2018-03-28T23:13:02.206Z,25.48
2018-03-28T23:15:30.742Z,24.87
2018-03-28T23:17:58.921Z,25.77
2018-03-28T23:20:27.107Z,23.15
2018-03-28T23:22:55.502Z,23.30
2018-03-28T23:25:23.658Z,24.92
2018-03-28T23:27:51.800Z,24.98
2018-03-28T23:30:20.711Z,25.62
2018-03-28T23:32:48.850Z,24.45
2018-03-28T23:35:17.783Z,25.75
2018-03-28T23:37:45.912Z,24.48
2018-03-28T23:40:14.054Z,25.23
2018-03-28T23:42:42.195Z,23.65
2018-03-28T23:45:10.377Z,25.05
2018-03-28T23:47:38.545Z,25.27
2018-03-28T23:50:06.664Z,24.17
2018-03-28T23:52:35.456Z,26.95
2018-03-28T23:55:03.583Z,26.12
2018-03-28T23:57:31.739Z,25.85
2018-03-28T23:59:59.876Z,26.73
